Time;durP1;ratioP1;P1;durP2;ratioP2;P2;SDS_P1;SDS_P2;PMS_P1;PMS_P2;Temp;Humidity;BMP_temperature;BMP_pressure;BME280_temperature;BME280_humidity;BME280_pressure;Samples;Min_cycle;Max_cycle;Signal;HPM_P1;HPM_P2
2021/12/13 08:53:42;;;;;;;;;;;24.00;29.80;;;;;;486995;243;1131;-78
2021/12/13 08:55:44;;;;;;;;;;;24.00;29.70;;;;;;486635;242;1064;-78
2021/12/13 08:57:45;;;;;;;;;;;23.90;29.90;;;;;;486796;242;1120;-78
2021/12/13 08:59:46;;;;;;;;;;;23.90;29.90;;;;;;486855;243;1100;-78
2021/12/13 09:01:48;;;;;;;;;;;23.90;30.00;;;;;;486764;242;1134;-78
2021/12/13 09:03:49;;;;;;;;;;;23.70;30.00;;;;;;486856;243;1046;-78
2021/12/13 09:05:51;;;;;;;;;;;23.80;30.00;;;;;;486845;244;2170;-78
2021/12/13 09:07:52;;;;;;;;;;;23.90;29.90;;;;;;487092;242;998;-78
2021/12/13 09:09:53;;;;;;;;;;;24.00;29.90;;;;;;486761;243;1046;-78
2021/12/13 09:11:57;;;;;;;;;;;23.90;30.00;;;;;;486712;245;1091;-78
2021/12/13 09:13:57;;;;;;;;;;;23.90;29.90;;;;;;486633;243;1278;-79
2021/12/13 09:15:59;;;;;;;;;;;23.90;30.00;;;;;;486683;243;1291;-78
2021/12/13 09:18:00;;;;;;;;;;;23.90;29.90;;;;;;486801;243;1180;-78
2021/12/13 09:20:01;;;;;;;;;;;24.10;29.70;;;;;;486843;243;1056;-78
2021/12/13 09:22:03;;;;;;;;;;;24.00;29.90;;;;;;486930;243;1253;-78
2021/12/13 09:24:04;;;;;;;;;;;24.00;29.80;;;;;;486824;243;1032;-78
2021/12/13 09:26:05;;;;;;;;;;;23.90;30.00;;;;;;486784;243;2178;-78
2021/12/13 09:28:06;;;;;;;;;;;24.00;30.00;;;;;;486763;243;1062;-78
2021/12/13 09:30:08;;;;;;;;;;;24.10;29.80;;;;;;486884;243;1149;-78
2021/12/13 09:32:09;;;;;;;;;;;23.90;30.00;;;;;;486868;243;1176;-78
2021/12/13 09:34:10;;;;;;;;;;;24.00;30.00;;;;;;486922;243;1026;-78
2021/12/13 09:36:12;;;;;;;;;;;23.80;30.30;;;;;;486686;243;1091;-78
2021/12/13 09:38:13;;;;;;;;;;;24.00;30.00;;;;;;486624;243;1092;-78
2021/12/13 09:40:14;;;;;;;;;;;23.90;30.20;;;;;;486675;245;1162;-78
2021/12/13 09:42:16;;;;;;;;;;;24.00;30.00;;;;;;486919;243;1250;-78
2021/12/13 09:44:17;;;;;;;;;;;24.00;30.00;;;;;;486774;243;1208;-78
2021/12/13 09:46:19;;;;;;;;;;;24.10;30.00;;;;;;486822;243;2197;-78
2021/12/13 09:48:21;;;;;;;;;;;24.00;30.10;;;;;;486603;243;1101;-78
2021/12/13 09:50:22;;;;;;;;;;;24.10;30.00;;;;;;486532;243;1082;-78
2021/12/13 09:52:23;;;;;;;;;;;24.10;30.10;;;;;;486531;243;1359;-78
2021/12/13 09:54:24;;;;;;;;;;;24.30;29.90;;;;;;486601;243;1119;-78
2021/12/13 09:56:26;;;;;;;;;;;24.10;29.90;;;;;;486549;242;1343;-78
2021/12/13 09:58:27;;;;;;;;;;;24.00;30.10;;;;;;486619;243;1082;-78
2021/12/13 10:00:28;;;;;;;;;;;24.00;30.20;;;;;;486574;243;1212;-78
2021/12/13 10:02:30;;;;;;;;;;;24.10;30.10;;;;;;486849;243;1087;-78
2021/12/13 10:04:31;;;;;;;;;;;24.10;30.00;;;;;;486668;243;1120;-78
2021/12/13 10:06:34;;;;;;;;;;;24.00;30.30;;;;;;486740;240;2190;-78
2021/12/13 10:08:34;;;;;;;;;;;23.90;30.30;;;;;;486982;244;1401;-78
2021/12/13 10:10:35;;;;;;;;;;;23.90;30.50;;;;;;486773;243;1093;-78
2021/12/13 10:12:39;;;;;;;;;;;23.90;30.30;;;;;;486697;243;1292;-78
2021/12/13 10:14:38;;;;;;;;;;;23.90;30.50;;;;;;486404;244;1339;-78
2021/12/13 10:16:39;;;;;;;;;;;23.80;30.60;;;;;;486552;240;1277;-78
2021/12/13 10:18:40;;;;;;;;;;;23.90;30.50;;;;;;486925;243;1235;-78
2021/12/13 10:20:42;;;;;;;;;;;23.90;30.50;;;;;;486824;243;1059;-78
2021/12/13 10:22:43;;;;;;;;;;;24.10;30.40;;;;;;486916;243;1158;-78
2021/12/13 10:24:44;;;;;;;;;;;24.20;30.10;;;;;;486771;244;1100;-78
2021/12/13 10:26:46;;;;;;;;;;;24.10;30.30;;;;;;486801;244;2194;-78
2021/12/13 10:28:53;;;;;;;;;;;24.10;30.30;;;;;;486611;245;1028;-78
2021/12/13 10:30:54;;;;;;;;;;;24.00;30.60;;;;;;486831;243;1143;-78
2021/12/13 10:32:56;;;;;;;;;;;24.10;30.40;;;;;;486736;243;1121;-78
2021/12/13 10:34:57;;;;;;;;;;;24.00;30.50;;;;;;486936;243;1128;-77
2021/12/13 10:36:58;;;;;;;;;;;24.20;30.30;;;;;;486660;244;1181;-78
2021/12/13 10:39:00;;;;;;;;;;;24.20;30.40;;;;;;486501;243;1249;-78
2021/12/13 10:41:01;;;;;;;;;;;24.30;30.20;;;;;;486535;244;1074;-78
2021/12/13 10:43:02;;;;;;;;;;;24.10;30.30;;;;;;486803;244;1331;-78
2021/12/13 10:45:04;;;;;;;;;;;24.20;30.30;;;;;;486673;244;1128;-78
2021/12/13 10:47:05;;;;;;;;;;;24.20;30.30;;;;;;486914;243;2222;-78
2021/12/13 10:49:06;;;;;;;;;;;24.00;30.70;;;;;;486773;243;1116;-78
2021/12/13 10:51:08;;;;;;;;;;;24.10;30.60;;;;;;486742;244;1080;-78
2021/12/13 10:53:09;;;;;;;;;;;24.30;30.50;;;;;;486748;243;1209;-78
2021/12/13 10:55:10;;;;;;;;;;;24.20;30.50;;;;;;486751;243;1002;-78
2021/12/13 10:57:12;;;;;;;;;;;23.90;30.80;;;;;;486848;244;1376;-78
2021/12/13 10:59:13;;;;;;;;;;;23.90;31.00;;;;;;486858;243;1200;-78
2021/12/13 11:01:14;;;;;;;;;;;24.10;30.90;;;;;;486692;244;1133;-78
2021/12/13 11:03:16;;;;;;;;;;;24.40;30.30;;;;;;486784;243;1111;-78
2021/12/13 11:05:17;;;;;;;;;;;24.20;30.50;;;;;;486781;243;1083;-78
2021/12/13 11:07:18;;;;;;;;;;;24.30;30.40;;;;;;486784;243;2194;-78
2021/12/13 11:09:19;;;;;;;;;;;24.00;30.70;;;;;;486702;243;1051;-78
2021/12/13 11:11:21;;;;;;;;;;;23.90;30.80;;;;;;486653;243;1460;-78
2021/12/13 11:13:22;;;;;;;;;;;24.30;30.70;;;;;;486884;243;1188;-78
2021/12/13 11:15:23;;;;;;;;;;;24.20;30.50;;;;;;486470;242;1131;-78
2021/12/13 11:17:25;;;;;;;;;;;24.10;30.60;;;;;;486567;243;1336;-78
2021/12/13 11:19:26;;;;;;;;;;;24.10;30.90;;;;;;486647;243;1091;-77
2021/12/13 11:21:27;;;;;;;;;;;23.90;31.10;;;;;;486444;240;1168;-78
2021/12/13 11:23:29;;;;;;;;;;;24.00;31.00;;;;;;486668;243;1209;-78
2021/12/13 11:25:30;;;;;;;;;;;23.90;31.00;;;;;;486749;244;1066;-78
2021/12/13 11:27:31;;;;;;;;;;;24.20;30.90;;;;;;486720;243;2194;-78
2021/12/13 11:29:33;;;;;;;;;;;24.20;30.80;;;;;;486939;242;1475;-78
2021/12/13 11:31:36;;;;;;;;;;;24.50;30.40;;;;;;486640;242;1193;-78
2021/12/13 11:33:35;;;;;;;;;;;24.50;30.50;;;;;;486626;244;1207;-78
2021/12/13 11:35:37;;;;;;;;;;;24.20;30.50;;;;;;486877;243;1054;-77
2021/12/13 11:37:38;;;;;;;;;;;24.10;30.80;;;;;;486970;244;1221;-78
2021/12/13 11:39:39;;;;;;;;;;;23.80;31.10;;;;;;486804;243;1468;-78
2021/12/13 11:41:40;;;;;;;;;;;24.00;31.20;;;;;;486878;245;1110;-78
2021/12/13 11:43:42;;;;;;;;;;;24.00;31.10;;;;;;486571;242;1068;-78
2021/12/13 11:45:43;;;;;;;;;;;24.10;31.00;;;;;;486479;243;1075;-78
2021/12/13 11:47:44;;;;;;;;;;;24.10;30.90;;;;;;486644;243;2190;-78
2021/12/13 11:49:46;;;;;;;;;;;24.00;31.10;;;;;;486737;243;1074;-78
2021/12/13 11:51:47;;;;;;;;;;;24.20;30.90;;;;;;486729;243;1572;-78
2021/12/13 11:53:48;;;;;;;;;;;24.00;31.10;;;;;;486758;243;1207;-78
2021/12/13 11:55:50;;;;;;;;;;;24.10;31.00;;;;;;486755;242;1040;-78
2021/12/13 11:57:51;;;;;;;;;;;24.20;30.90;;;;;;486733;244;1122;-78
2021/12/13 11:59:52;;;;;;;;;;;24.30;31.00;;;;;;486778;243;1032;-78
2021/12/13 12:01:54;;;;;;;;;;;24.40;30.80;;;;;;486716;243;1077;-78
2021/12/13 12:03:55;;;;;;;;;;;24.40;30.60;;;;;;486661;243;1051;-78
2021/12/13 12:05:56;;;;;;;;;;;24.40;30.80;;;;;;486628;243;1095;-78
2021/12/13 12:07:58;;;;;;;;;;;24.50;30.70;;;;;;486725;240;2202;-78
2021/12/13 12:09:59;;;;;;;;;;;24.40;30.60;;;;;;487027;242;1180;-78
2021/12/13 12:12:00;;;;;;;;;;;24.30;30.90;;;;;;486676;243;1261;-78
2021/12/13 12:14:06;;;;;;;;;;;24.30;30.80;;;;;;486808;242;1202;-78
2021/12/13 12:16:06;;;;;;;;;;;24.40;30.90;;;;;;486580;244;1420;-78
2021/12/13 12:18:07;;;;;;;;;;;24.30;31.00;;;;;;486706;244;1238;-78
2021/12/13 12:20:09;;;;;;;;;;;24.30;31.10;;;;;;486621;243;1338;-78
2021/12/13 12:22:13;;;;;;;;;;;24.30;30.90;;;;;;486499;243;1092;-78
2021/12/13 12:24:12;;;;;;;;;;;24.10;31.20;;;;;;486533;243;1440;-78
2021/12/13 12:26:13;;;;;;;;;;;24.10;31.20;;;;;;486525;243;2202;-78
2021/12/13 12:28:14;;;;;;;;;;;24.20;31.30;;;;;;486507;243;1180;-78
2021/12/13 12:30:16;;;;;;;;;;;24.00;31.50;;;;;;486443;243;1062;-78
2021/12/13 12:32:18;;;;;;;;;;;24.40;31.20;;;;;;486532;243;1145;-77
2021/12/13 12:34:18;;;;;;;;;;;24.60;30.80;;;;;;486897;243;1288;-78
2021/12/13 12:36:19;;;;;;;;;;;24.50;30.90;;;;;;486689;243;1081;-78
2021/12/13 12:38:21;;;;;;;;;;;24.60;30.70;;;;;;486528;244;1287;-78
2021/12/13 12:40:22;;;;;;;;;;;24.70;30.60;;;;;;486524;243;1125;-78
2021/12/13 12:42:23;;;;;;;;;;;24.70;30.50;;;;;;486681;243;1313;-78
2021/12/13 12:44:25;;;;;;;;;;;24.40;30.90;;;;;;486778;241;1463;-78
2021/12/13 12:46:28;;;;;;;;;;;24.40;31.00;;;;;;486649;243;2182;-78
2021/12/13 12:48:27;;;;;;;;;;;24.30;31.10;;;;;;486484;244;1397;-78
2021/12/13 12:50:29;;;;;;;;;;;24.30;31.30;;;;;;486685;244;1063;-78
2021/12/13 12:52:30;;;;;;;;;;;24.30;31.10;;;;;;486829;242;1230;-78
2021/12/13 12:54:31;;;;;;;;;;;24.30;31.20;;;;;;486831;243;1207;-78
2021/12/13 12:56:33;;;;;;;;;;;24.30;31.30;;;;;;486573;243;1063;-78
2021/12/13 12:58:34;;;;;;;;;;;24.00;31.60;;;;;;486686;243;1141;-78
2021/12/13 13:00:35;;;;;;;;;;;24.50;31.20;;;;;;486696;243;1039;-78
2021/12/13 13:02:37;;;;;;;;;;;24.30;31.40;;;;;;487027;244;1177;-78
2021/12/13 13:04:38;;;;;;;;;;;24.60;31.20;;;;;;486676;240;1209;-78
2021/12/13 13:06:39;;;;;;;;;;;24.30;31.30;;;;;;486736;243;2190;-78
2021/12/13 13:08:41;;;;;;;;;;;24.50;31.20;;;;;;486561;242;1068;-78
2021/12/13 13:10:49;;;;;;;;;;;24.40;31.20;;;;;;486865;243;1137;-78
2021/12/13 13:12:50;;;;;;;;;;;24.40;31.20;;;;;;487549;242;1074;-78
2021/12/13 13:14:52;;;;;;;;;;;24.30;31.30;;;;;;486470;243;1050;-78
2021/12/13 13:16:53;;;;;;;;;;;24.40;31.30;;;;;;486405;243;1510;-78
2021/12/13 13:18:55;;;;;;;;;;;24.00;31.60;;;;;;486617;243;1065;-78
2021/12/13 13:20:57;;;;;;;;;;;24.10;31.80;;;;;;486789;244;1365;-78
2021/12/13 13:22:57;;;;;;;;;;;24.10;31.70;;;;;;486591;243;1285;-78
2021/12/13 13:24:58;;;;;;;;;;;24.00;31.60;;;;;;486486;243;1189;-78
2021/12/13 13:27:00;;;;;;;;;;;24.40;31.40;;;;;;486442;241;2146;-78
2021/12/13 13:29:01;;;;;;;;;;;24.00;31.90;;;;;;486631;243;1036;-78
2021/12/13 13:31:02;;;;;;;;;;;23.80;32.00;;;;;;486689;242;1217;-78
2021/12/13 13:33:04;;;;;;;;;;;23.70;32.30;;;;;;486700;243;1081;-78
2021/12/13 13:35:05;;;;;;;;;;;24.20;31.80;;;;;;486594;243;1159;-78
2021/12/13 13:37:06;;;;;;;;;;;24.00;31.80;;;;;;486747;243;1318;-78
2021/12/13 13:39:08;;;;;;;;;;;24.30;31.60;;;;;;486729;243;1192;-78
2021/12/13 13:41:09;;;;;;;;;;;24.30;31.40;;;;;;486640;243;1431;-78
2021/12/13 13:43:10;;;;;;;;;;;24.30;31.40;;;;;;486853;243;1043;-78
2021/12/13 13:45:11;;;;;;;;;;;24.20;31.40;;;;;;486643;243;1116;-78
2021/12/13 13:47:13;;;;;;;;;;;24.10;31.70;;;;;;486641;243;2221;-78
2021/12/13 13:49:14;;;;;;;;;;;24.20;31.60;;;;;;486601;242;1066;-78
2021/12/13 13:51:15;;;;;;;;;;;24.10;31.60;;;;;;486482;242;1125;-78
2021/12/13 13:53:17;;;;;;;;;;;24.40;31.50;;;;;;486676;244;1048;-78
2021/12/13 13:55:18;;;;;;;;;;;23.90;31.90;;;;;;486746;242;1293;-77
2021/12/13 13:57:19;;;;;;;;;;;24.20;31.60;;;;;;486689;243;1148;-77
2021/12/13 13:59:23;;;;;;;;;;;24.00;31.90;;;;;;486642;243;1082;-78
2021/12/13 14:01:22;;;;;;;;;;;24.10;31.60;;;;;;486640;243;1353;-78
2021/12/13 14:03:23;;;;;;;;;;;23.90;31.90;;;;;;486809;243;1175;-78
2021/12/13 14:05:25;;;;;;;;;;;23.90;32.10;;;;;;486586;243;1202;-78
2021/12/13 14:07:27;;;;;;;;;;;24.50;31.30;;;;;;486835;243;2198;-78
2021/12/13 14:09:28;;;;;;;;;;;24.30;31.40;;;;;;486463;243;1158;-78
2021/12/13 14:11:29;;;;;;;;;;;23.80;32.10;;;;;;486504;243;1254;-78
2021/12/13 14:13:30;;;;;;;;;;;23.80;32.10;;;;;;486606;244;1074;-78
2021/12/13 14:15:31;;;;;;;;;;;24.30;31.70;;;;;;486642;244;1275;-78
2021/12/13 14:17:33;;;;;;;;;;;24.20;31.50;;;;;;486629;240;1225;-78
2021/12/13 14:19:34;;;;;;;;;;;24.10;31.60;;;;;;486908;242;1097;-78
2021/12/13 14:21:36;;;;;;;;;;;24.40;31.50;;;;;;486772;243;1274;-77
2021/12/13 14:23:37;;;;;;;;;;;24.30;31.40;;;;;;486669;243;1303;-78
2021/12/13 14:25:38;;;;;;;;;;;24.40;31.20;;;;;;486659;243;1098;-77
2021/12/13 14:27:39;;;;;;;;;;;24.00;31.70;;;;;;486534;243;2201;-78
2021/12/13 14:29:41;;;;;;;;;;;24.00;31.80;;;;;;486842;243;1086;-78
2021/12/13 14:31:42;;;;;;;;;;;24.20;31.60;;;;;;486607;243;1172;-78
2021/12/13 14:33:43;;;;;;;;;;;24.40;31.30;;;;;;486716;244;1062;-78
2021/12/13 14:35:45;;;;;;;;;;;24.20;31.40;;;;;;486707;243;1041;-78
2021/12/13 14:37:46;;;;;;;;;;;24.00;31.80;;;;;;486783;243;1055;-78
2021/12/13 14:39:49;;;;;;;;;;;24.00;31.90;;;;;;486785;243;1097;-78
2021/12/13 14:41:49;;;;;;;;;;;24.20;31.50;;;;;;486621;244;1328;-78
2021/12/13 14:43:50;;;;;;;;;;;24.60;31.20;;;;;;486932;243;1053;-78
2021/12/13 14:45:51;;;;;;;;;;;24.60;31.00;;;;;;486598;243;1078;-78
2021/12/13 14:47:56;;;;;;;;;;;24.70;30.80;;;;;;486594;243;2258;-78
2021/12/13 14:49:54;;;;;;;;;;;24.90;30.60;;;;;;486567;244;1299;-78
2021/12/13 14:51:55;;;;;;;;;;;25.10;30.40;;;;;;486696;243;1078;-78
2021/12/13 14:53:57;;;;;;;;;;;24.80;30.70;;;;;;487080;243;1178;-78
2021/12/13 14:55:58;;;;;;;;;;;24.90;30.60;;;;;;486839;243;1090;-77
2021/12/13 14:57:59;;;;;;;;;;;24.90;30.80;;;;;;486768;243;1109;-78
2021/12/13 15:00:00;;;;;;;;;;;24.80;30.60;;;;;;486531;243;1072;-78
2021/12/13 15:02:02;;;;;;;;;;;24.90;30.70;;;;;;486451;243;1140;-78
2021/12/13 15:04:04;;;;;;;;;;;24.90;30.60;;;;;;486836;242;1099;-78
2021/12/13 15:06:05;;;;;;;;;;;24.80;30.80;;;;;;486817;242;1124;-78
2021/12/13 15:08:07;;;;;;;;;;;25.00;30.60;;;;;;486886;243;2177;-78
2021/12/13 15:10:08;;;;;;;;;;;25.20;30.50;;;;;;486806;242;1045;-78
2021/12/13 15:12:09;;;;;;;;;;;25.00;30.30;;;;;;487057;242;1218;-78
2021/12/13 15:14:10;;;;;;;;;;;25.10;30.30;;;;;;486873;242;1261;-78
2021/12/13 15:16:13;;;;;;;;;;;24.80;30.60;;;;;;486720;243;1112;-78
2021/12/13 15:18:13;;;;;;;;;;;25.10;30.50;;;;;;487016;243;1495;-78
2021/12/13 15:20:15;;;;;;;;;;;25.20;30.40;;;;;;486575;243;1030;-77
2021/12/13 15:22:16;;;;;;;;;;;25.10;30.30;;;;;;486743;243;1285;-78
2021/12/13 15:24:18;;;;;;;;;;;25.20;30.40;;;;;;486812;243;1048;-77
2021/12/13 15:26:19;;;;;;;;;;;25.30;30.30;;;;;;486888;243;1156;-79
2021/12/13 15:28:20;;;;;;;;;;;25.20;30.30;;;;;;486768;243;2202;-78
2021/12/13 15:30:21;;;;;;;;;;;25.10;30.50;;;;;;486771;243;1048;-77
2021/12/13 15:32:24;;;;;;;;;;;25.40;30.10;;;;;;486833;242;1155;-78
2021/12/13 15:34:24;;;;;;;;;;;25.30;30.10;;;;;;486814;242;1329;-78
2021/12/13 15:36:25;;;;;;;;;;;25.40;30.10;;;;;;486870;243;1039;-77
2021/12/13 15:38:27;;;;;;;;;;;25.40;30.10;;;;;;486783;243;1006;-78
2021/12/13 15:40:29;;;;;;;;;;;25.20;30.00;;;;;;486823;244;1065;-77
2021/12/13 15:42:30;;;;;;;;;;;25.10;30.60;;;;;;486979;243;1497;-77
2021/12/13 15:44:31;;;;;;;;;;;24.90;30.70;;;;;;486924;243;1438;-78
2021/12/13 15:46:32;;;;;;;;;;;24.80;30.80;;;;;;486873;243;1203;-78
2021/12/13 15:50:53;;;;;;;;;;;25.20;30.50;;;;;;486667;242;1100;-77
2021/12/13 15:52:54;;;;;;;;;;;25.40;30.20;;;;;;486733;243;1122;-78
2021/12/13 15:54:55;;;;;;;;;;;25.40;30.30;;;;;;486713;243;1036;-78
2021/12/13 15:56:58;;;;;;;;;;;25.50;30.10;;;;;;486625;243;1201;-78
2021/12/13 15:58:58;;;;;;;;;;;25.60;30.20;;;;;;487107;243;1439;-78
2021/12/13 16:00:59;;;;;;;;;;;25.50;30.10;;;;;;486771;243;1050;-78
2021/12/13 16:03:01;;;;;;;;;;;26.10;29.90;;;;;;487093;243;1059;-78
2021/12/13 16:05:02;;;;;;;;;;;25.30;30.20;;;;;;486857;243;1137;-78
2021/12/13 16:07:03;;;;;;;;;;;25.30;30.20;;;;;;486794;243;1453;-77
2021/12/13 16:09:05;;;;;;;;;;;25.40;30.20;;;;;;487096;243;2230;-77
2021/12/13 16:11:06;;;;;;;;;;;25.60;30.20;;;;;;486880;243;1161;-78
2021/12/13 16:13:08;;;;;;;;;;;25.40;30.00;;;;;;486888;243;1357;-78
2021/12/13 16:15:09;;;;;;;;;;;25.90;30.00;;;;;;486866;244;1301;-78
2021/12/13 16:17:10;;;;;;;;;;;25.70;30.00;;;;;;486730;243;1137;-78
2021/12/13 16:19:11;;;;;;;;;;;25.30;30.20;;;;;;487128;243;1176;-78
2021/12/13 16:21:13;;;;;;;;;;;25.40;30.20;;;;;;486831;244;1031;-78
2021/12/13 16:23:14;;;;;;;;;;;25.10;30.50;;;;;;486849;243;1113;-78
2021/12/13 16:25:15;;;;;;;;;;;25.20;30.40;;;;;;486988;243;1020;-78
2021/12/13 16:27:16;;;;;;;;;;;25.30;30.30;;;;;;487234;243;1188;-78
2021/12/13 16:29:18;;;;;;;;;;;25.40;30.10;;;;;;486894;243;2175;-78
2021/12/13 16:31:19;;;;;;;;;;;25.10;30.50;;;;;;486818;243;1145;-78
2021/12/13 16:33:20;;;;;;;;;;;25.40;30.10;;;;;;487050;243;1078;-78
2021/12/13 16:35:22;;;;;;;;;;;25.40;30.30;;;;;;486790;243;1058;-78
2021/12/13 16:37:23;;;;;;;;;;;25.40;30.40;;;;;;486733;244;1090;-78
2021/12/13 16:39:24;;;;;;;;;;;25.50;30.10;;;;;;486982;244;1121;-78
2021/12/13 16:41:26;;;;;;;;;;;25.40;30.20;;;;;;486909;243;1011;-78
2021/12/13 16:43:27;;;;;;;;;;;25.30;30.40;;;;;;486984;241;1412;-78
2021/12/13 16:45:28;;;;;;;;;;;25.40;30.30;;;;;;486977;243;1099;-78
2021/12/13 16:47:33;;;;;;;;;;;25.00;30.50;;;;;;486982;244;1121;-78
2021/12/13 16:49:31;;;;;;;;;;;25.00;30.70;;;;;;486846;244;2194;-78
2021/12/13 16:51:32;;;;;;;;;;;25.20;30.70;;;;;;487020;243;1111;-78
2021/12/13 16:53:34;;;;;;;;;;;25.50;30.20;;;;;;487134;243;1378;-78
2021/12/13 16:55:35;;;;;;;;;;;25.50;30.20;;;;;;486824;243;1119;-78
2021/12/13 16:57:36;;;;;;;;;;;25.60;30.00;;;;;;486972;243;1141;-79
2021/12/13 16:59:38;;;;;;;;;;;26.10;29.80;;;;;;487044;243;1045;-78
2021/12/13 17:01:39;;;;;;;;;;;25.80;29.90;;;;;;487017;243;1126;-78
2021/12/13 17:03:40;;;;;;;;;;;25.90;29.90;;;;;;487005;243;1212;-78
2021/12/13 17:05:42;;;;;;;;;;;25.60;29.90;;;;;;487070;242;1448;-78
2021/12/13 17:07:44;;;;;;;;;;;25.90;30.00;;;;;;487041;243;1068;-79
2021/12/13 17:09:45;;;;;;;;;;;25.70;30.00;;;;;;487196;243;2198;-78
2021/12/13 17:11:47;;;;;;;;;;;25.90;29.80;;;;;;487163;243;1190;-78
2021/12/13 17:13:49;;;;;;;;;;;25.70;29.70;;;;;;487104;243;1165;-78
2021/12/13 17:15:50;;;;;;;;;;;25.90;29.90;;;;;;486936;240;1559;-78
2021/12/13 17:17:50;;;;;;;;;;;25.80;29.80;;;;;;486880;242;1430;-78
2021/12/13 17:19:58;;;;;;;;;;;25.80;29.90;;;;;;486990;242;1039;-78
2021/12/13 17:21:54;;;;;;;;;;;26.10;29.70;;;;;;486698;243;1442;-78
2021/12/13 17:23:55;;;;;;;;;;;25.80;29.80;;;;;;487237;242;1204;-78
2021/12/13 17:25:57;;;;;;;;;;;25.80;29.70;;;;;;487013;244;1117;-78
2021/12/13 17:27:58;;;;;;;;;;;25.70;29.90;;;;;;487058;243;1169;-78
2021/12/13 17:29:59;;;;;;;;;;;25.80;29.90;;;;;;487122;243;2181;-78
2021/12/13 17:32:01;;;;;;;;;;;25.70;29.80;;;;;;487344;243;1101;-78
2021/12/13 17:34:02;;;;;;;;;;;26.10;29.70;;;;;;487201;243;1093;-78
2021/12/13 17:36:03;;;;;;;;;;;25.90;29.70;;;;;;487304;244;1458;-78
2021/12/13 17:38:04;;;;;;;;;;;25.90;29.90;;;;;;487333;243;1313;-78
2021/12/13 17:40:06;;;;;;;;;;;25.60;30.00;;;;;;486939;243;1336;-78
2021/12/13 17:42:07;;;;;;;;;;;26.20;29.60;;;;;;486892;243;1245;-78
2021/12/13 17:44:08;;;;;;;;;;;26.10;29.70;;;;;;486997;243;1332;-78
2021/12/13 17:46:10;;;;;;;;;;;25.70;29.70;;;;;;487187;245;1014;-78
2021/12/13 17:48:12;;;;;;;;;;;26.00;29.70;;;;;;487235;243;2131;-78
2021/12/13 17:50:12;;;;;;;;;;;26.00;29.70;;;;;;487197;243;1457;-78
2021/12/13 17:52:14;;;;;;;;;;;25.80;29.80;;;;;;487104;243;1088;-78
2021/12/13 17:54:17;;;;;;;;;;;25.70;29.90;;;;;;486969;244;987;-78
2021/12/13 17:56:16;;;;;;;;;;;25.30;30.20;;;;;;486804;244;1447;-78
2021/12/13 17:58:18;;;;;;;;;;;25.40;30.10;;;;;;487122;243;1107;-78
2021/12/13 18:00:19;;;;;;;;;;;25.60;30.00;;;;;;487238;242;1031;-78
2021/12/13 18:02:20;;;;;;;;;;;25.70;30.00;;;;;;487209;242;1118;-78
2021/12/13 18:04:22;;;;;;;;;;;25.40;30.00;;;;;;487308;243;1075;-78
2021/12/13 18:06:23;;;;;;;;;;;25.70;30.00;;;;;;487209;240;1107;-78
2021/12/13 18:08:24;;;;;;;;;;;25.70;29.80;;;;;;487075;245;2194;-78
2021/12/13 18:10:26;;;;;;;;;;;25.90;29.90;;;;;;487335;243;1087;-78
2021/12/13 18:12:27;;;;;;;;;;;25.70;29.80;;;;;;487141;243;1330;-78
2021/12/13 18:14:28;;;;;;;;;;;25.60;30.00;;;;;;487217;243;1207;-79
2021/12/13 18:16:30;;;;;;;;;;;25.70;30.00;;;;;;487156;242;1129;-78
2021/12/13 18:18:32;;;;;;;;;;;25.90;29.80;;;;;;487279;241;1154;-78
2021/12/13 18:20:32;;;;;;;;;;;25.80;29.80;;;;;;487482;244;1423;-78
2021/12/13 18:22:34;;;;;;;;;;;26.10;29.70;;;;;;487208;242;1215;-78
2021/12/13 18:24:35;;;;;;;;;;;25.80;29.80;;;;;;487295;243;1199;-78
2021/12/13 18:26:40;;;;;;;;;;;25.80;29.80;;;;;;486996;242;1173;-78
2021/12/13 18:28:38;;;;;;;;;;;25.80;29.90;;;;;;487297;243;2190;-78
2021/12/13 18:30:40;;;;;;;;;;;25.60;30.00;;;;;;487291;242;1086;-78
2021/12/13 18:32:41;;;;;;;;;;;25.70;29.90;;;;;;487339;243;1101;-78
2021/12/13 18:34:42;;;;;;;;;;;25.80;29.90;;;;;;487359;243;1462;-78
2021/12/13 18:36:44;;;;;;;;;;;25.80;29.90;;;;;;487302;242;1241;-78
2021/12/13 18:38:45;;;;;;;;;;;25.70;30.00;;;;;;487217;243;1211;-78
2021/12/13 18:40:48;;;;;;;;;;;25.90;29.90;;;;;;487231;243;1481;-78
2021/12/13 18:42:58;;;;;;;;;;;25.80;29.80;;;;;;487260;244;1485;-78
2021/12/13 18:44:54;;;;;;;;;;;26.00;29.80;;;;;;486582;244;1227;-78
2021/12/13 18:46:53;;;;;;;;;;;25.90;29.80;;;;;;486892;244;1386;-78
2021/12/13 18:48:55;;;;;;;;;;;25.70;29.90;;;;;;487250;243;2186;-78
2021/12/13 18:50:56;;;;;;;;;;;25.70;30.00;;;;;;487270;244;1052;-78
2021/12/13 18:52:57;;;;;;;;;;;25.60;30.00;;;;;;487437;243;1056;-79
2021/12/13 18:54:59;;;;;;;;;;;26.10;29.70;;;;;;487263;244;1036;-79
2021/12/13 18:57:00;;;;;;;;;;;25.70;29.80;;;;;;487297;244;1099;-78
2021/12/13 18:59:01;;;;;;;;;;;25.90;29.80;;;;;;487378;243;1156;-78
2021/12/13 19:01:03;;;;;;;;;;;25.60;29.90;;;;;;487298;242;1105;-78
2021/12/13 19:03:04;;;;;;;;;;;25.20;30.30;;;;;;487362;244;1040;-78
2021/12/13 19:05:05;;;;;;;;;;;25.40;30.20;;;;;;487251;243;1100;-78
2021/12/13 19:07:07;;;;;;;;;;;25.60;30.00;;;;;;487464;243;1263;-78
2021/12/13 19:09:08;;;;;;;;;;;25.70;29.90;;;;;;487326;243;2198;-78
2021/12/13 19:11:10;;;;;;;;;;;25.80;29.90;;;;;;487360;243;1097;-78
2021/12/13 19:13:11;;;;;;;;;;;25.60;30.00;;;;;;487551;242;1506;-78
2021/12/13 19:15:13;;;;;;;;;;;25.50;30.00;;;;;;487581;242;1113;-78
2021/12/13 19:17:13;;;;;;;;;;;25.80;30.00;;;;;;487302;243;1509;-78
2021/12/13 19:19:15;;;;;;;;;;;25.40;30.10;;;;;;487418;242;1051;-78
2021/12/13 19:21:16;;;;;;;;;;;25.40;30.10;;;;;;487286;242;1178;-78
2021/12/13 19:23:17;;;;;;;;;;;25.60;30.00;;;;;;487341;242;1043;-78
2021/12/13 19:25:19;;;;;;;;;;;25.70;29.90;;;;;;487369;242;1405;-78
2021/12/13 19:27:20;;;;;;;;;;;25.50;30.00;;;;;;487316;243;1175;-78
2021/12/13 19:29:21;;;;;;;;;;;25.50;30.10;;;;;;487368;243;2155;-78
2021/12/13 19:31:22;;;;;;;;;;;25.50;30.00;;;;;;487376;243;1043;-78
2021/12/13 19:33:24;;;;;;;;;;;25.60;29.90;;;;;;487283;245;976;-78
2021/12/13 19:35:25;;;;;;;;;;;25.90;30.00;;;;;;487375;243;1113;-79
2021/12/13 19:37:32;;;;;;;;;;;25.50;30.00;;;;;;487247;243;1198;-78
2021/12/13 19:39:28;;;;;;;;;;;25.50;29.90;;;;;;487037;243;1440;-78
2021/12/13 19:41:30;;;;;;;;;;;25.70;30.00;;;;;;487206;242;1351;-78
2021/12/13 19:43:31;;;;;;;;;;;25.50;30.00;;;;;;487515;242;1134;-78
2021/12/13 19:45:32;;;;;;;;;;;25.50;30.10;;;;;;487447;242;1167;-78
2021/12/13 19:47:33;;;;;;;;;;;25.60;30.00;;;;;;487689;241;1175;-78
2021/12/13 19:49:35;;;;;;;;;;;25.70;29.90;;;;;;487431;243;2178;-78
2021/12/13 19:51:36;;;;;;;;;;;25.60;29.90;;;;;;487394;244;1517;-78
2021/12/13 19:53:37;;;;;;;;;;;25.40;30.00;;;;;;487416;243;1072;-78
2021/12/13 19:55:39;;;;;;;;;;;25.40;30.10;;;;;;487458;243;1063;-78
2021/12/13 19:57:40;;;;;;;;;;;25.40;30.00;;;;;;487503;243;1116;-78
2021/12/13 19:59:41;;;;;;;;;;;25.90;29.90;;;;;;487385;243;1174;-78
2021/12/13 20:01:43;;;;;;;;;;;25.70;29.90;;;;;;487346;244;1136;-78
2021/12/13 20:03:44;;;;;;;;;;;25.90;29.70;;;;;;487406;243;971;-78
2021/12/13 20:05:45;;;;;;;;;;;25.60;29.70;;;;;;487334;243;1066;-78
2021/12/13 20:07:47;;;;;;;;;;;25.00;30.30;;;;;;487379;243;1252;-78
2021/12/13 20:09:48;;;;;;;;;;;24.90;30.40;;;;;;487381;243;2170;-78
2021/12/13 20:11:50;;;;;;;;;;;24.80;30.60;;;;;;487433;243;1416;-78
2021/12/13 20:14:00;;;;;;;;;;;25.30;30.20;;;;;;487541;243;1037;-78
2021/12/13 20:15:53;;;;;;;;;;;25.40;30.20;;;;;;486941;243;1409;-78
2021/12/13 20:17:54;;;;;;;;;;;25.30;30.20;;;;;;487416;242;1312;-78
2021/12/13 20:19:55;;;;;;;;;;;25.40;30.00;;;;;;487439;243;1032;-78
2021/12/13 20:21:57;;;;;;;;;;;25.50;30.00;;;;;;487445;243;1228;-78
2021/12/13 20:23:58;;;;;;;;;;;25.70;29.80;;;;;;487434;243;1124;-78
2021/12/13 20:26:00;;;;;;;;;;;25.50;29.90;;;;;;487428;243;1261;-78
2021/12/13 20:28:02;;;;;;;;;;;25.70;29.90;;;;;;487624;243;1009;-78
2021/12/13 20:30:02;;;;;;;;;;;25.40;30.10;;;;;;487381;243;2202;-78
2021/12/13 20:32:05;;;;;;;;;;;25.40;30.00;;;;;;487360;244;1214;-78
2021/12/13 20:34:07;;;;;;;;;;;25.70;29.90;;;;;;487286;244;1496;-78
2021/12/13 20:36:08;;;;;;;;;;;25.70;29.90;;;;;;487472;244;1214;-78
2021/12/13 20:38:10;;;;;;;;;;;25.70;29.80;;;;;;487477;243;1057;-79
2021/12/13 20:40:13;;;;;;;;;;;25.70;30.00;;;;;;487437;242;1383;-78
2021/12/13 20:42:12;;;;;;;;;;;25.30;30.00;;;;;;487332;244;1469;-78
2021/12/13 20:44:14;;;;;;;;;;;25.70;30.00;;;;;;487413;242;1148;-78
2021/12/13 20:46:15;;;;;;;;;;;25.50;29.80;;;;;;487463;242;1205;-78
2021/12/13 20:48:16;;;;;;;;;;;25.30;29.90;;;;;;487425;243;1083;-78
2021/12/13 20:50:18;;;;;;;;;;;25.50;30.00;;;;;;487445;244;2194;-79
2021/12/13 20:52:22;;;;;;;;;;;25.40;29.90;;;;;;487397;243;1119;-79